createdAt,value
2023-05-06T00:00:10.026Z,60.84
2023-05-06T00:03:01.212Z,60.80
2023-05-06T00:05:29.799Z,60.93
2023-05-06T00:07:58.237Z,60.84
2023-05-06T00:10:26.807Z,60.74
2023-05-06T00:12:55.205Z,60.63
2023-05-06T00:15:23.746Z,60.77
2023-05-06T00:17:52.175Z,60.95
2023-05-06T00:20:20.686Z,61.15
2023-05-06T00:22:49.277Z,61.21
2023-05-06T00:25:18.000Z,61.43
2023-05-06T00:27:46.474Z,61.50
2023-05-06T00:30:14.929Z,61.58
2023-05-06T00:32:43.551Z,61.48
2023-05-06T00:35:13.080Z,61.45
2023-05-06T00:37:46.226Z,61.41
2023-05-06T00:40:14.844Z,61.53
2023-05-06T00:42:43.405Z,61.49
2023-05-06T00:45:12.426Z,61.57
2023-05-06T00:47:41.410Z,61.79
2023-05-06T00:50:10.472Z,61.89
2023-05-06T00:52:38.977Z,61.82
2023-05-06T00:55:09.120Z,61.81
2023-05-06T00:57:39.692Z,61.97
2023-05-06T01:00:11.111Z,61.88
2023-05-06T01:02:47.114Z,61.93
2023-05-06T01:05:17.591Z,61.92
2023-05-06T01:07:52.366Z,62.08
2023-05-06T01:10:27.662Z,61.94
2023-05-06T01:13:05.791Z,62.25
2023-05-06T01:15:40.415Z,62.29
2023-05-06T01:18:11.264Z,62.38
2023-05-06T01:20:42.142Z,62.34
2023-05-06T01:23:12.501Z,62.47
2023-05-06T01:25:41.434Z,62.63
2023-05-06T01:28:11.116Z,62.84
2023-05-06T01:30:48.668Z,63.04
2023-05-06T01:33:24.007Z,63.16
2023-05-06T01:36:00.302Z,63.47
2023-05-06T01:38:34.542Z,63.65
2023-05-06T01:41:03.764Z,63.86
2023-05-06T01:43:40.404Z,64.29
2023-05-06T01:46:15.317Z,64.43
2023-05-06T01:48:45.310Z,64.55
2023-05-06T01:51:13.853Z,64.52
2023-05-06T01:53:42.484Z,64.67
2023-05-06T01:56:10.932Z,64.63
2023-05-06T01:58:39.607Z,64.70
2023-05-06T02:01:08.197Z,64.96
2023-05-06T02:03:36.926Z,64.95
2023-05-06T02:06:05.815Z,65.09
2023-05-06T02:08:39.913Z,64.98
2023-05-06T02:11:08.610Z,64.91
2023-05-06T02:13:37.390Z,64.87
2023-05-06T02:16:08.188Z,64.98
2023-05-06T02:18:36.883Z,65.12
2023-05-06T02:21:06.869Z,65.26
2023-05-06T02:23:35.364Z,65.53
2023-05-06T02:26:04.468Z,65.80
2023-05-06T02:28:34.697Z,66.18
2023-05-06T02:31:03.059Z,66.52
2023-05-06T02:33:31.472Z,66.67
2023-05-06T02:35:59.858Z,66.66
2023-05-06T02:38:28.284Z,66.81
2023-05-06T02:40:57.038Z,67.07
2023-05-06T02:43:25.800Z,67.20
2023-05-06T02:45:54.434Z,67.77
2023-05-06T02:48:23.098Z,67.89
2023-05-06T02:50:52.098Z,68.15
2023-05-06T02:53:20.610Z,68.38
2023-05-06T02:55:49.025Z,68.18
2023-05-06T02:58:17.659Z,68.02
2023-05-06T03:00:46.095Z,68.08
2023-05-06T03:03:14.542Z,67.90
2023-05-06T03:05:43.044Z,67.86
2023-05-06T03:08:11.503Z,67.68
2023-05-06T03:10:40.526Z,67.54
2023-05-06T03:13:09.121Z,67.78
2023-05-06T03:15:37.991Z,67.57
2023-05-06T03:18:06.561Z,67.47
2023-05-06T03:20:35.344Z,67.37
2023-05-06T03:23:03.936Z,67.15
2023-05-06T03:25:32.407Z,67.16
2023-05-06T03:28:01.055Z,67.12
2023-05-06T03:30:29.875Z,67.29
2023-05-06T03:33:01.252Z,67.42
2023-05-06T03:35:31.694Z,67.34
2023-05-06T03:38:01.362Z,67.26
2023-05-06T03:40:36.459Z,67.59
2023-05-06T03:43:05.154Z,67.52
2023-05-06T03:45:34.375Z,67.70
2023-05-06T03:48:03.829Z,68.14
2023-05-06T03:50:32.833Z,68.28
2023-05-06T03:53:01.609Z,68.06
2023-05-06T03:55:30.656Z,68.03
2023-05-06T03:57:59.183Z,67.86
2023-05-06T04:00:27.875Z,68.04
2023-05-06T04:02:56.603Z,68.06
2023-05-06T04:05:33.741Z,68.42
2023-05-06T04:08:03.604Z,68.63
2023-05-06T04:10:32.058Z,68.87
2023-05-06T04:13:05.726Z,69.17
2023-05-06T04:15:40.897Z,69.44
2023-05-06T04:18:14.754Z,70.30
2023-05-06T04:20:45.337Z,70.99
2023-05-06T04:23:13.982Z,71.31
2023-05-06T04:25:43.621Z,71.50
2023-05-06T04:28:12.306Z,71.82
2023-05-06T04:30:40.913Z,71.95
2023-05-06T04:33:10.064Z,71.80
2023-05-06T04:35:39.291Z,71.50
2023-05-06T04:38:09.246Z,71.33
2023-05-06T04:40:40.116Z,70.86
2023-05-06T04:43:09.829Z,70.79
2023-05-06T04:45:39.552Z,70.27
2023-05-06T04:48:09.282Z,69.94
2023-05-06T04:50:37.835Z,69.90
2023-05-06T04:53:06.312Z,69.82
2023-05-06T04:55:35.506Z,69.72
2023-05-06T04:58:03.890Z,69.52
2023-05-06T05:00:32.675Z,69.30
2023-05-06T05:03:01.534Z,69.19
2023-05-06T05:05:30.755Z,68.83
2023-05-06T05:08:00.535Z,68.72
2023-05-06T05:10:29.598Z,68.58
2023-05-06T05:12:58.631Z,68.39
2023-05-06T05:15:27.372Z,68.17
2023-05-06T05:17:56.195Z,68.10
2023-05-06T05:20:24.921Z,68.11
2023-05-06T05:22:53.512Z,67.85
2023-05-06T05:25:21.986Z,67.56
2023-05-06T05:27:50.609Z,67.51
2023-05-06T05:30:20.168Z,67.39
2023-05-06T05:32:49.176Z,67.43
2023-05-06T05:35:18.650Z,67.56
2023-05-06T05:37:47.261Z,67.51
2023-05-06T05:40:15.975Z,67.34
2023-05-06T05:42:44.755Z,67.16
2023-05-06T05:45:20.624Z,67.20
2023-05-06T05:47:49.695Z,66.94
2023-05-06T05:50:25.506Z,66.66
2023-05-06T05:52:54.314Z,66.72
2023-05-06T05:55:28.597Z,66.73
2023-05-06T05:57:59.211Z,66.60
2023-05-06T06:00:28.755Z,66.54
2023-05-06T06:03:05.543Z,66.62
2023-05-06T06:05:34.840Z,66.71
2023-05-06T06:08:04.062Z,66.22
2023-05-06T06:10:50.012Z,66.11
2023-05-06T06:13:22.039Z,66.10
2023-05-06T06:15:51.519Z,66.27
2023-05-06T06:18:20.128Z,66.48
2023-05-06T06:20:53.106Z,66.34
2023-05-06T06:23:25.538Z,66.15
2023-05-06T06:26:00.133Z,65.69
2023-05-06T06:28:41.272Z,65.54
2023-05-06T06:31:09.775Z,65.35
2023-05-06T06:33:42.995Z,64.91
2023-05-06T06:36:16.537Z,64.81
2023-05-06T06:38:48.503Z,64.47
2023-05-06T06:41:24.036Z,64.61
2023-05-06T06:44:03.347Z,64.60
2023-05-06T06:46:36.339Z,64.23
2023-05-06T06:49:11.114Z,64.63
2023-05-06T06:51:39.900Z,64.50
2023-05-06T06:54:16.108Z,64.71
2023-05-06T06:56:44.501Z,65.00
2023-05-06T06:59:13.084Z,65.05
2023-05-06T07:01:42.611Z,64.74
2023-05-06T07:04:11.126Z,64.61
2023-05-06T07:06:39.557Z,64.80
2023-05-06T07:09:08.179Z,64.86
2023-05-06T07:11:36.680Z,65.01
2023-05-06T07:14:05.070Z,64.86
2023-05-06T07:16:33.660Z,65.04
2023-05-06T07:19:02.092Z,64.94
2023-05-06T07:21:31.669Z,64.89
2023-05-06T07:24:00.428Z,65.21
2023-05-06T07:26:28.898Z,65.02
2023-05-06T07:28:57.332Z,65.08
2023-05-06T07:31:26.190Z,65.10
2023-05-06T07:33:54.804Z,64.99
2023-05-06T07:36:23.246Z,64.77
2023-05-06T07:38:51.811Z,65.07
2023-05-06T07:41:20.678Z,65.71
2023-05-06T07:43:49.166Z,66.82
2023-05-06T07:46:17.864Z,67.47
2023-05-06T07:48:46.358Z,67.54
2023-05-06T07:51:14.803Z,68.17
2023-05-06T07:53:43.191Z,68.87
2023-05-06T07:56:11.644Z,69.15
2023-05-06T07:58:40.249Z,69.19
2023-05-06T08:01:08.744Z,68.86
2023-05-06T08:03:37.549Z,68.43
2023-05-06T08:06:06.775Z,68.90
2023-05-06T08:08:35.317Z,69.26
2023-05-06T08:11:03.979Z,69.96
2023-05-06T08:13:33.152Z,70.87
2023-05-06T08:16:01.809Z,71.65
2023-05-06T08:18:30.549Z,71.71
2023-05-06T08:21:00.017Z,72.38
2023-05-06T08:23:28.505Z,72.92
2023-05-06T08:25:57.102Z,73.69
2023-05-06T08:28:25.915Z,74.01
2023-05-06T08:30:54.701Z,74.01
2023-05-06T08:33:23.333Z,74.31
2023-05-06T08:35:52.739Z,74.57
2023-05-06T08:38:21.186Z,74.86
2023-05-06T08:40:52.049Z,75.09
2023-05-06T08:43:21.528Z,75.20
2023-05-06T08:45:50.418Z,75.68
2023-05-06T08:48:19.298Z,76.25
2023-05-06T08:50:51.324Z,77.00
2023-05-06T08:53:19.756Z,77.71
2023-05-06T08:55:51.455Z,78.76
2023-05-06T08:58:20.986Z,79.40
2023-05-06T09:00:49.553Z,80.14
2023-05-06T09:03:18.259Z,80.48
2023-05-06T09:05:46.868Z,80.58
2023-05-06T09:08:15.618Z,81.07
2023-05-06T09:10:44.747Z,81.52
2023-05-06T09:13:14.014Z,81.77
2023-05-06T09:15:43.505Z,82.32
2023-05-06T09:18:12.054Z,82.28
2023-05-06T09:20:42.524Z,82.30
2023-05-06T09:23:11.886Z,82.91
2023-05-06T09:25:40.728Z,83.34
2023-05-06T09:28:11.052Z,83.83
2023-05-06T09:30:40.419Z,84.17
2023-05-06T09:33:09.683Z,84.86
2023-05-06T09:35:39.426Z,85.56
2023-05-06T09:38:08.425Z,86.27
2023-05-06T09:40:38.017Z,86.88
2023-05-06T09:43:07.137Z,87.08
2023-05-06T09:45:36.852Z,87.46
2023-05-06T09:48:06.231Z,87.67
2023-05-06T09:50:35.538Z,87.70
2023-05-06T09:53:05.388Z,87.96
2023-05-06T09:55:34.807Z,88.11
2023-05-06T09:58:05.729Z,88.10
2023-05-06T10:00:35.198Z,88.21
2023-05-06T10:03:05.798Z,88.51
2023-05-06T10:05:35.823Z,88.79
2023-05-06T10:08:05.160Z,88.85
2023-05-06T10:10:34.616Z,88.98
2023-05-06T10:13:07.491Z,89.28
2023-05-06T10:15:37.704Z,89.60
2023-05-06T10:18:08.156Z,89.99
2023-05-06T10:20:40.723Z,90.50
2023-05-06T10:23:20.465Z,90.47
2023-05-06T10:25:53.274Z,90.13
2023-05-06T10:28:26.724Z,90.03
2023-05-06T10:30:59.971Z,90.16
2023-05-06T10:33:29.296Z,90.33
2023-05-06T10:36:19.470Z,90.98
2023-05-06T10:38:55.789Z,91.40
2023-05-06T10:41:27.259Z,91.81
2023-05-06T10:43:57.249Z,92.07
2023-05-06T10:46:27.333Z,92.13
2023-05-06T10:49:16.020Z,91.94
2023-05-06T10:51:48.624Z,91.82
2023-05-06T10:54:24.257Z,92.08
2023-05-06T10:57:10.364Z,92.31
2023-05-06T10:59:46.513Z,92.43
2023-05-06T11:02:19.226Z,92.21
2023-05-06T11:04:52.486Z,92.27
2023-05-06T11:07:24.374Z,92.58
2023-05-06T11:09:57.682Z,92.62
2023-05-06T11:12:47.174Z,92.68
2023-05-06T11:15:25.869Z,92.80
2023-05-06T11:17:55.564Z,92.54
2023-05-06T11:20:25.983Z,92.37
2023-05-06T11:22:54.676Z,92.07
2023-05-06T11:25:40.239Z,92.24
2023-05-06T11:28:10.445Z,91.41
2023-05-06T11:30:41.614Z,91.25
2023-05-06T11:33:17.974Z,91.24
2023-05-06T11:35:47.685Z,91.05
2023-05-06T11:38:16.302Z,90.60
2023-05-06T11:40:44.858Z,89.86
2023-05-06T11:43:14.699Z,89.55
2023-05-06T11:45:44.381Z,89.53
2023-05-06T11:48:13.814Z,89.22
2023-05-06T11:50:46.568Z,89.35
2023-05-06T11:53:18.240Z,89.64
2023-05-06T11:55:47.546Z,89.70
2023-05-06T11:58:17.921Z,89.70
2023-05-06T12:00:51.405Z,89.16
2023-05-06T12:03:20.955Z,88.76
2023-05-06T12:05:50.422Z,88.37
2023-05-06T12:08:28.447Z,87.90
2023-05-06T12:11:01.325Z,87.92
2023-05-06T12:13:30.265Z,87.74
2023-05-06T12:16:00.790Z,87.97
2023-05-06T12:18:30.052Z,87.35
2023-05-06T12:21:02.384Z,87.26
2023-05-06T12:23:30.983Z,86.91
2023-05-06T12:26:04.505Z,86.67
2023-05-06T12:28:35.368Z,86.13
2023-05-06T12:31:18.830Z,85.42
2023-05-06T12:33:49.255Z,85.31
2023-05-06T12:36:18.189Z,84.65
2023-05-06T12:38:53.646Z,85.27
2023-05-06T12:41:23.189Z,86.07
2023-05-06T12:43:52.224Z,85.86
2023-05-06T12:46:20.820Z,85.20
2023-05-06T12:48:59.620Z,85.19
2023-05-06T12:51:30.118Z,84.85
2023-05-06T12:53:58.761Z,84.77
2023-05-06T12:56:27.346Z,84.98
2023-05-06T12:59:00.312Z,85.22
2023-05-06T13:01:28.836Z,84.27
2023-05-06T13:03:57.603Z,84.11
2023-05-06T13:06:26.087Z,84.20
2023-05-06T13:08:54.518Z,83.71
2023-05-06T13:11:25.114Z,83.77
2023-05-06T13:13:53.597Z,83.28
2023-05-06T13:16:22.213Z,82.25
2023-05-06T13:18:50.815Z,82.35
2023-05-06T13:21:19.294Z,82.38
2023-05-06T13:23:48.108Z,82.37
2023-05-06T13:26:17.148Z,81.52
2023-05-06T13:28:45.743Z,80.88
2023-05-06T13:31:14.327Z,80.67
2023-05-06T13:33:42.854Z,80.91
2023-05-06T13:36:11.320Z,80.81
2023-05-06T13:38:39.929Z,80.88
2023-05-06T13:41:08.491Z,81.07
2023-05-06T13:43:36.934Z,80.95
2023-05-06T13:46:05.617Z,80.99
2023-05-06T13:48:34.409Z,81.26
2023-05-06T13:51:02.959Z,80.90
2023-05-06T13:53:31.282Z,80.52
2023-05-06T13:55:59.920Z,80.44
2023-05-06T13:58:28.365Z,79.94
2023-05-06T14:00:56.806Z,77.50
2023-05-06T14:03:25.398Z,77.51
2023-05-06T14:05:54.128Z,78.13
2023-05-06T14:08:22.582Z,78.54
2023-05-06T14:10:51.114Z,78.96
2023-05-06T14:13:19.717Z,78.10
2023-05-06T14:15:48.356Z,78.90
2023-05-06T14:18:17.368Z,79.02
2023-05-06T14:20:45.675Z,79.29
2023-05-06T14:23:14.129Z,79.42
2023-05-06T14:25:42.546Z,78.62
2023-05-06T14:28:12.144Z,78.42
2023-05-06T14:30:40.872Z,78.13
2023-05-06T14:33:09.899Z,77.66
2023-05-06T14:35:41.442Z,77.18
2023-05-06T14:38:10.410Z,77.13
2023-05-06T14:40:39.033Z,77.02
2023-05-06T14:43:08.063Z,76.93
2023-05-06T14:45:36.712Z,77.48
2023-05-06T14:48:07.000Z,77.52
2023-05-06T14:50:35.547Z,77.26
2023-05-06T14:53:04.229Z,76.87
2023-05-06T14:55:32.919Z,77.03
2023-05-06T14:58:01.419Z,77.49
2023-05-06T15:00:29.979Z,77.10
2023-05-06T15:02:58.760Z,77.53
2023-05-06T15:05:27.307Z,77.88
2023-05-06T15:07:55.740Z,78.09
2023-05-06T15:10:24.212Z,78.35
2023-05-06T15:12:52.682Z,78.07
2023-05-06T15:15:21.495Z,78.64
2023-05-06T15:17:51.672Z,79.15
2023-05-06T15:20:20.105Z,79.41
2023-05-06T15:22:48.539Z,79.69
2023-05-06T15:25:26.543Z,79.13
2023-05-06T15:28:02.348Z,78.73
2023-05-06T15:30:30.963Z,78.91
2023-05-06T15:32:59.811Z,79.45
2023-05-06T15:35:28.618Z,79.40
2023-05-06T15:37:58.243Z,79.60
2023-05-06T15:40:26.986Z,79.98
2023-05-06T15:42:55.624Z,80.30
2023-05-06T15:45:24.095Z,79.64
2023-05-06T15:47:53.588Z,79.87
2023-05-06T15:50:32.738Z,79.96
2023-05-06T15:53:02.614Z,80.23
2023-05-06T15:55:35.171Z,80.21
2023-05-06T15:58:09.948Z,80.42
2023-05-06T16:00:38.443Z,80.53
2023-05-06T16:03:09.733Z,80.32
2023-05-06T16:05:41.061Z,80.00
2023-05-06T16:08:09.472Z,79.98
2023-05-06T16:10:38.261Z,79.75
2023-05-06T16:13:06.863Z,80.44
2023-05-06T16:15:35.719Z,80.95
2023-05-06T16:18:04.660Z,80.42
2023-05-06T16:20:33.686Z,80.00
2023-05-06T16:23:02.643Z,80.22
2023-05-06T16:25:31.393Z,80.53
2023-05-06T16:27:59.928Z,81.18
2023-05-06T16:30:28.474Z,81.18
2023-05-06T16:32:56.923Z,81.22
2023-05-06T16:35:25.657Z,81.18
2023-05-06T16:37:54.073Z,81.23
2023-05-06T16:40:22.404Z,81.19
2023-05-06T16:42:51.057Z,81.10
2023-05-06T16:45:20.010Z,80.74
2023-05-06T16:47:48.616Z,80.54
2023-05-06T16:50:17.300Z,80.03
2023-05-06T16:52:45.672Z,80.01
2023-05-06T16:55:14.169Z,80.07
2023-05-06T16:57:42.644Z,80.28
2023-05-06T17:00:12.803Z,80.53
2023-05-06T17:02:41.564Z,80.83
2023-05-06T17:05:10.342Z,80.79
2023-05-06T17:07:39.103Z,81.24
2023-05-06T17:10:09.808Z,81.31
2023-05-06T17:14:53.089Z,81.79
2023-05-06T17:17:29.190Z,81.86
2023-05-06T17:20:00.978Z,82.26
2023-05-06T17:22:32.873Z,82.45
2023-05-06T17:25:05.155Z,82.73
2023-05-06T17:27:36.907Z,82.66
2023-05-06T17:30:11.958Z,82.84
2023-05-06T17:32:44.387Z,82.77
2023-05-06T17:35:14.990Z,82.92
2023-05-06T17:37:46.853Z,83.08
2023-05-06T17:40:21.189Z,83.18
2023-05-06T17:42:53.207Z,83.22
2023-05-06T17:45:25.337Z,83.12
2023-05-06T17:47:57.353Z,83.16
2023-05-06T17:50:27.536Z,83.22
2023-05-06T17:52:59.405Z,83.52
2023-05-06T17:55:31.353Z,83.53
2023-05-06T17:58:03.276Z,83.62
2023-05-06T18:00:35.535Z,83.55
2023-05-06T18:03:07.494Z,83.73
2023-05-06T18:05:37.982Z,83.76
2023-05-06T18:08:09.920Z,84.12
2023-05-06T18:10:41.903Z,84.19
2023-05-06T18:13:12.336Z,84.23
2023-05-06T18:15:44.160Z,84.85
2023-05-06T18:18:16.079Z,85.03
2023-05-06T18:20:47.923Z,85.01
2023-05-06T18:23:19.615Z,85.40
2023-05-06T18:25:51.467Z,85.36
2023-05-06T18:28:23.343Z,85.20
2023-05-06T18:30:53.939Z,85.24
2023-05-06T18:33:25.898Z,85.00
2023-05-06T18:35:56.406Z,84.96
2023-05-06T18:38:45.837Z,85.19
2023-05-06T18:41:33.733Z,85.14
2023-05-06T18:44:09.455Z,85.19
2023-05-06T18:47:01.780Z,85.43
2023-05-06T18:49:51.109Z,85.60
2023-05-06T18:52:26.145Z,85.83
2023-05-06T18:54:58.745Z,85.82
2023-05-06T18:57:30.504Z,85.84
2023-05-06T19:00:02.393Z,86.02
2023-05-06T19:02:34.379Z,86.15
2023-05-06T19:05:09.127Z,86.34
2023-05-06T19:07:59.413Z,86.50
2023-05-06T19:10:38.622Z,86.61
2023-05-06T19:13:14.095Z,86.38
2023-05-06T19:15:48.792Z,86.69
2023-05-06T19:18:21.749Z,86.57
2023-05-06T19:21:04.429Z,86.78
2023-05-06T19:23:43.286Z,87.06
2023-05-06T19:26:19.485Z,87.03
2023-05-06T19:29:00.063Z,87.07
2023-05-06T19:32:09.134Z,87.09
2023-05-06T19:34:44.626Z,87.35
2023-05-06T19:37:20.136Z,87.18
2023-05-06T19:39:52.109Z,87.43
2023-05-06T19:42:22.504Z,87.33
2023-05-06T19:44:54.411Z,87.54
2023-05-06T19:47:27.024Z,87.42
2023-05-06T19:49:59.422Z,87.72
2023-05-06T19:52:33.389Z,87.58
2023-05-06T19:55:06.110Z,87.69
2023-05-06T19:57:38.082Z,87.57
2023-05-06T20:00:11.779Z,87.65
2023-05-06T20:02:43.962Z,87.84
2023-05-06T20:05:16.045Z,87.79
2023-05-06T20:07:46.674Z,87.70
2023-05-06T20:10:18.585Z,87.63
2023-05-06T20:15:26.854Z,87.43
2023-05-06T20:17:58.937Z,87.83
2023-05-06T20:20:37.174Z,88.63
2023-05-06T20:23:09.536Z,89.41
2023-05-06T20:25:42.055Z,90.04
2023-05-06T20:28:14.038Z,90.63
2023-05-06T20:30:45.780Z,91.10
2023-05-06T20:33:17.719Z,91.02
2023-05-06T20:35:51.024Z,91.26
2023-05-06T20:38:22.873Z,91.52
2023-05-06T20:40:54.591Z,91.59
2023-05-06T20:43:26.475Z,91.70
2023-05-06T20:45:58.336Z,91.99
2023-05-06T20:48:31.334Z,92.48
2023-05-06T20:51:03.012Z,92.82
2023-05-06T20:53:34.940Z,92.98
2023-05-06T20:56:07.434Z,93.21
2023-05-06T20:58:39.223Z,93.38
2023-05-06T21:01:10.977Z,93.45
2023-05-06T21:03:43.036Z,93.47
2023-05-06T21:06:14.984Z,93.63
2023-05-06T21:08:47.639Z,93.68
2023-05-06T21:11:19.383Z,93.75
2023-05-06T21:13:51.174Z,93.96
2023-05-06T21:16:22.952Z,94.35
2023-05-06T21:18:54.827Z,94.51
2023-05-06T21:21:27.210Z,94.68
2023-05-06T21:23:59.132Z,94.91
2023-05-06T21:26:32.198Z,94.73
2023-05-06T21:29:04.181Z,94.83
2023-05-06T21:31:36.228Z,94.72
2023-05-06T21:34:08.124Z,94.73
2023-05-06T21:36:39.843Z,94.85
2023-05-06T21:39:15.214Z,95.06
2023-05-06T21:41:46.856Z,95.25
2023-05-06T21:44:18.718Z,95.23
2023-05-06T21:46:50.492Z,95.63
2023-05-06T21:49:22.808Z,95.72
2023-05-06T21:51:54.551Z,95.34
2023-05-06T21:54:26.459Z,95.20
2023-05-06T21:56:58.360Z,95.35
2023-05-06T21:59:30.236Z,95.20
2023-05-06T22:02:02.138Z,95.34
2023-05-06T22:04:33.898Z,94.77
2023-05-06T22:07:05.704Z,94.22
2023-05-06T22:09:37.483Z,94.06
2023-05-06T22:12:11.627Z,94.21
2023-05-06T22:14:43.405Z,94.10
2023-05-06T22:17:15.667Z,94.16
2023-05-06T22:19:47.671Z,94.41
2023-05-06T22:22:20.209Z,94.43
2023-05-06T22:24:50.740Z,94.24
2023-05-06T22:27:22.336Z,94.16
2023-05-06T22:29:54.071Z,93.72
2023-05-06T22:32:26.048Z,92.88
2023-05-06T22:34:57.773Z,92.76
2023-05-06T22:37:29.467Z,92.59
2023-05-06T22:40:01.313Z,92.38
2023-05-06T22:42:33.025Z,92.46
2023-05-06T22:45:05.482Z,92.46
2023-05-06T22:47:37.236Z,92.35
2023-05-06T22:50:11.105Z,92.59
2023-05-06T22:52:42.761Z,92.40
2023-05-06T22:55:16.215Z,92.49
2023-05-06T22:57:49.844Z,92.47
2023-05-06T23:00:22.823Z,92.08
2023-05-06T23:02:54.528Z,91.67
2023-05-06T23:05:26.456Z,91.50
2023-05-06T23:07:58.271Z,91.30
2023-05-06T23:10:30.011Z,91.35
2023-05-06T23:13:04.182Z,91.13
2023-05-06T23:15:36.687Z,91.15
2023-05-06T23:18:08.528Z,91.44
2023-05-06T23:20:40.455Z,91.64
2023-05-06T23:23:12.203Z,91.94
2023-05-06T23:25:43.974Z,91.54
2023-05-06T23:28:15.681Z,91.24
2023-05-06T23:30:48.681Z,91.34
2023-05-06T23:33:20.387Z,91.04
2023-05-06T23:35:52.140Z,90.81
2023-05-06T23:38:24.025Z,90.52
2023-05-06T23:40:55.949Z,90.43
2023-05-06T23:43:27.683Z,90.38
2023-05-06T23:45:59.548Z,90.42
2023-05-06T23:48:31.356Z,90.25
2023-05-06T23:51:03.070Z,90.02
2023-05-06T23:53:36.178Z,89.71
2023-05-06T23:56:08.681Z,89.60
2023-05-06T23:58:40.538Z,89.49
